Jump to content

Archived

This topic is now archived and is closed to further replies.

joherszch

A foggy KLAX

Recommended Posts

A single shot of D-ABYA before departing as DLH457 bound for EDDF.

 

METAR KLAX 262353Z 26010KT 1/4SM R25R/1600V2800FT FG VV002 13/13 A2992

 

 

Share this post


Link to post
Share on other sites

×
×
  • Create New...